Flight Track Log - Related Links

Times and Time Zones

All times are in EDT time to prevent confusion due to time zone crossing. See the ASQ5997 flight status page for this flight to view local times or setup timezone preferences in your user account.

Time Position Orientation Groundspeed Altitude Reporting Facility
EDT Latitude Longitude Course Direction KTS MPH feet Rate Location/Type
Sat 11:53:01 AM 39.8894 -104.5306 81° East 232 267 7,800  Level Denver Center
Sat 11:54:03 AM 39.9119 -104.4242 75° East 281 323 10,300 1,790 Climbing Denver Center
Sat 11:55:00 AM 39.9590 -104.0368 79° East  Level FlightAware Approximate
Sat 11:55:05 AM 39.9306 -104.3100 78° East 322 371 11,500  Level Denver Center
Sat 11:56:00 AM 39.9875 -103.8793 75° East  Level FlightAware Approximate
Sat 11:56:07 AM 39.9531 -104.1819 77° East 357 411 13,300  Level Denver Center
Sat 11:57:00 AM 40.0220 -103.7246 81° East  Level FlightAware Approximate
Sat 11:57:09 AM 39.9758 -104.0403 78° East 371 427 15,000  Level Denver Center
Sat 11:58:00 AM 40.0401 -103.5801 81° East  Level FlightAware Approximate
Sat 11:58:11 AM 39.9978 -103.9036 78° East 385 443 16,600  Level Denver Center
Sat 11:59:12 AM 40.0228 -103.7497 78° East 395 455 18,400 1,610 Climbing Denver Center
Sat 12:00:14 PM 40.0481 -103.6136 76° East 386 444 19,900 1,452 Climbing Denver Center
Sat 12:01:16 PM 40.0708 -103.4692 78° East 402 463 21,400 1,452 Climbing Denver Center
Sat 12:02:18 PM 40.0931 -103.3222 79° East 408 470 22,900 1,452 Climbing Denver Center
Sat 12:03:20 PM 40.1175 -103.1750 78° East 413 475 24,400 1,500 Climbing Denver Center
Sat 12:04:22 PM 40.1414 -103.0278 78° East 416 479 26,000 1,645 Climbing Denver Center
Sat 12:05:24 PM 40.1694 -102.8497 78° East 417 480 27,800 1,597 Climbing Denver Center
Sat 12:06:26 PM 40.1925 -102.7047 78° East 412 474 29,300 1,452 Climbing Denver Center
Sat 12:07:28 PM 40.2144 -102.5592 79° East 411 473 30,800 1,463 Climbing Denver Center
Sat 12:08:29 PM 40.2353 -102.4214 79° East 407 468 32,300 1,548 Climbing Denver Center
Sat 12:09:32 PM 40.2614 -102.2631 78° East 401 461 34,000 1,182 Climbing Denver Center
Sat 12:10:46 PM 40.2872 -102.0828 79° East 398 458 35,000 441 Climbing Denver Center
Sat 12:11:48 PM 40.3092 -101.9400 79° East 413 475 35,000  Level Denver Center
Sat 12:12:49 PM 40.3314 -101.7886 79° East 435 501 35,000  Level Denver Center
Sat 12:13:51 PM 40.3572 -101.6047 79° East 457 526 35,000  Level Denver Center
Sat 12:14:53 PM 40.3803 -101.4439 79° East 465 535 35,000  Level Denver Center
Sat 12:15:55 PM 40.4064 -101.2586 79° East 465 535 35,000  Level Denver Center
Sat 12:16:57 PM 40.4294 -101.0972 79° East 468 539 35,000  Level Denver Center
Sat 12:17:59 PM 40.4556 -100.9106 80° East 468 539 35,000  Level Denver Center
Sat 12:19:01 PM 40.4769 -100.7492 80° East 470 541 35,000  Level Denver Center
Sat 12:20:03 PM 40.5008 -100.5619 80° East 470 541 35,000  Level Denver Center
Sat 12:21:05 PM 40.5211 -100.4017 81° East 470 541 35,000  Level Denver Center
Sat 12:22:07 PM 40.5447 -100.2142 81° East 470 541 35,000  Level Denver Center
Sat 12:23:09 PM 40.5644 -100.0533 81° East 470 541 35,000  Level Denver Center
Sat 12:24:11 PM 40.5881 -99.8672 80° East 467 537 35,000  Level Denver Center
Sat 12:25:13 PM 40.6069 -99.7069 81° East 465 535 35,000  Level Denver Center
Sat 12:26:15 PM 40.6264 -99.5392 81° East 465 535 35,000  Level Denver Center
Sat 12:27:16 PM 40.6469 -99.3703 81° East 465 535 35,000  Level Denver Center
Sat 12:28:18 PM 40.6692 -99.1689 82° East 465 535 35,000  Level Denver Center
Sat 12:29:20 PM 40.6897 -98.9997 81° East 467 537 35,000  Level Denver Center
Sat 12:30:22 PM 40.7089 -98.8286 82° East 470 541 35,000  Level Denver Center
Sat 12:31:24 PM 40.7278 -98.6567 82° East 474 545 35,000  Level Denver Center
Sat 12:32:26 PM 40.7467 -98.4836 82° East 477 549 35,000  Level Denver Center
Sat 12:33:45 PM 40.7736 -98.2403 82° East 479 551 35,000  Level Minneapolis Center
Sat 12:34:46 PM 40.7914 -98.0656 82° East 480 552 35,000  Level Minneapolis Center
Sat 12:35:47 PM 40.8097 -97.8917 82° East 480 552 35,000  Level Minneapolis Center
Sat 12:36:49 PM 40.8278 -97.7153 82° East 481 554 35,000  Level Minneapolis Center
Sat 12:37:50 PM 40.8461 -97.5403 82° East 481 554 35,000  Level Minneapolis Center
Sat 12:38:52 PM 40.8644 -97.3489 83° East 483 556 35,000  Level Minneapolis Center
Sat 12:39:53 PM 40.8828 -97.1714 82° East 485 558 35,000  Level Minneapolis Center
Sat 12:40:55 PM 40.8997 -96.9928 83° East 488 562 35,000  Level Minneapolis Center
Sat 12:41:56 PM 40.9161 -96.8147 83° East 488 562 35,000  Level Minneapolis Center
Sat 12:42:58 PM 40.9528 -96.6036 77° East 489 563 35,000  Level Minneapolis Center
Sat 12:43:59 PM 40.9911 -96.4311 74° East 490 564 35,000  Level Minneapolis Center
Sat 12:45:01 PM 41.0283 -96.2583 74° East 490 564 35,000  Level Minneapolis Center
Sat 12:46:03 PM 41.0653 -96.0858 74° East 491 565 35,000  Level Minneapolis Center
Sat 12:47:04 PM 41.1017 -95.9131 74° East 491 565 35,000  Level Minneapolis Center
Sat 12:48:06 PM 41.1439 -95.7072 75° East 493 567 35,000 -146 Level Minneapolis Center
Sat 12:49:07 PM 41.1814 -95.5289 74° East 495 570 34,700 -585 Descending Minneapolis Center
Sat 12:50:09 PM 41.2183 -95.3517 74° East 496 571 33,800 -829 Descending Minneapolis Center
Sat 12:51:10 PM 41.2550 -95.1750 75° East 497 572 33,000 -390 Descending Minneapolis Center
Sat 12:52:12 PM 41.2897 -94.9981 75° East 497 572 33,000  Level Minneapolis Center
Sat 12:53:13 PM 41.3258 -94.8194 75° East 497 572 33,000  Level Minneapolis Center
Sat 12:54:15 PM 41.3617 -94.6403 75° East 499 574 33,000  Level Minneapolis Center
Sat 12:55:16 PM 41.3972 -94.4606 75° East 500 575 33,000  Level Minneapolis Center
Sat 12:56:18 PM 41.4392 -94.2453 75° East 500 575 33,000 -390 Level Minneapolis Center
Sat 12:57:19 PM 41.4703 -94.0825 76° East 502 578 32,200 -878 Descending Minneapolis Center
Sat 12:58:21 PM 41.5050 -93.9056 75° East 502 578 31,200 -585 Descending Minneapolis Center
Sat 12:59:22 PM 41.5386 -93.7264 76° East 501 577 31,000 -927 Descending Minneapolis Center
Sat 01:00:24 PM 41.5794 -93.5117 76° East 501 577 29,300 -2,049 Descending Minneapolis Center
Sat 01:01:25 PM 41.6119 -93.3325 76° East 501 577 26,800 -2,508 Descending Minneapolis Center
Sat 01:02:26 PM 41.6456 -93.1556 76° East 500 575 24,200 -2,537 Descending Minneapolis Center
Sat 01:03:28 PM 41.6772 -92.9817 76° East 492 566 21,600 -2,537 Descending Minneapolis Center
Sat 01:04:29 PM 41.7069 -92.8169 76° East 472 543 19,000 -2,634 Descending Minneapolis Center
Sat 01:05:31 PM 41.7342 -92.6581 77° East 452 520 16,200 -2,580 Descending Minneapolis Center
Sat 01:06:09 PM 41.7528 -92.5667 75° East 440 506 14,700 -2,788 Descending Chicago Center
Sat 01:07:10 PM 41.7833 -92.3900 77° East 418 481 11,600 -1,902 Descending Chicago Center
Sat 01:08:12 PM 41.8019 -92.2519 80° East 393 452 10,800 -823 Descending Chicago Center
Sat 01:09:14 PM 41.8075 -92.1286 87° East 345 397 9,900 -1,258 Descending Chicago Center
Sat 01:10:16 PM 41.8156 -92.0158 84° East 317 365 8,200 -1,805 Descending Chicago Center
Sat 01:11:17 PM 41.8244 -91.9019 84° East 316 364 6,200 -2,098 Descending Chicago Center
Sat 01:12:19 PM 41.8411 -91.7714 80° East 311 358 3,900 -1,694 Descending Chicago Center
Sat 01:13:21 PM 41.8511 -91.6836 81° East 281 323 2,700 -1,016 Descending Chicago Center
Sat 01:14:23 PM 41.8764 -91.6372 54° Northeast 230 265 1,800 -871 Descending Chicago Center
Sat 01:16:00 PM 41.8833 -91.7000 90° East  Level FlightAware Approximate
Sat 01:23:00 PM 41.8847 -91.7108 90° East  Level Estimated

Login

Don't have an account? Register now (free) for customized features, flight alerts, and more!